sensor_id;sensor_type;location;lat;lon;timestamp;P1;durP1;ratioP1;P2;durP2;ratioP2
21198;SDS011;10757;51.038;3.712;2023-02-11T00:02:02;18.98;;;5.30;;
21198;SDS011;10757;51.038;3.712;2023-02-11T00:04:29;17.20;;;4.78;;
21198;SDS011;10757;51.038;3.712;2023-02-11T00:06:56;16.10;;;5.45;;
21198;SDS011;10757;51.038;3.712;2023-02-11T00:09:21;18.13;;;5.38;;
21198;SDS011;10757;51.038;3.712;2023-02-11T00:11:47;21.15;;;5.72;;
21198;SDS011;10757;51.038;3.712;2023-02-11T00:14:13;16.33;;;5.38;;
21198;SDS011;10757;51.038;3.712;2023-02-11T00:16:39;17.75;;;6.20;;
21198;SDS011;10757;51.038;3.712;2023-02-11T00:19:05;20.60;;;5.07;;
21198;SDS011;10757;51.038;3.712;2023-02-11T00:21:31;16.13;;;5.55;;
21198;SDS011;10757;51.038;3.712;2023-02-11T00:23:57;17.98;;;5.53;;
21198;SDS011;10757;51.038;3.712;2023-02-11T00:26:35;17.30;;;5.55;;
21198;SDS011;10757;51.038;3.712;2023-02-11T00:29:01;18.50;;;5.40;;
21198;SDS011;10757;51.038;3.712;2023-02-11T00:31:28;17.48;;;5.88;;
21198;SDS011;10757;51.038;3.712;2023-02-11T00:33:53;21.55;;;5.57;;
21198;SDS011;10757;51.038;3.712;2023-02-11T00:36:21;24.08;;;6.03;;
21198;SDS011;10757;51.038;3.712;2023-02-11T00:38:49;20.65;;;5.75;;
21198;SDS011;10757;51.038;3.712;2023-02-11T00:41:16;16.17;;;5.55;;
21198;SDS011;10757;51.038;3.712;2023-02-11T00:43:42;16.50;;;6.30;;
21198;SDS011;10757;51.038;3.712;2023-02-11T00:46:08;16.25;;;5.13;;
21198;SDS011;10757;51.038;3.712;2023-02-11T00:48:34;18.38;;;6.32;;
21198;SDS011;10757;51.038;3.712;2023-02-11T00:51:00;17.98;;;5.40;;
21198;SDS011;10757;51.038;3.712;2023-02-11T00:53:28;19.27;;;6.35;;
21198;SDS011;10757;51.038;3.712;2023-02-11T00:55:54;18.25;;;6.22;;
21198;SDS011;10757;51.038;3.712;2023-02-11T00:58:19;17.88;;;6.15;;
21198;SDS011;10757;51.038;3.712;2023-02-11T01:00:46;20.00;;;6.18;;
21198;SDS011;10757;51.038;3.712;2023-02-11T01:03:12;17.17;;;6.38;;
21198;SDS011;10757;51.038;3.712;2023-02-11T01:05:38;16.05;;;5.97;;
21198;SDS011;10757;51.038;3.712;2023-02-11T01:08:04;14.73;;;5.80;;
21198;SDS011;10757;51.038;3.712;2023-02-11T01:10:29;15.95;;;6.10;;
21198;SDS011;10757;51.038;3.712;2023-02-11T01:12:55;18.55;;;6.47;;
21198;SDS011;10757;51.038;3.712;2023-02-11T01:15:21;21.85;;;6.97;;
21198;SDS011;10757;51.038;3.712;2023-02-11T01:17:47;19.48;;;6.32;;
21198;SDS011;10757;51.038;3.712;2023-02-11T01:20:18;17.63;;;7.50;;
21198;SDS011;10757;51.038;3.712;2023-02-11T01:22:45;15.30;;;6.07;;
21198;SDS011;10757;51.038;3.712;2023-02-11T01:25:11;21.92;;;6.32;;
21198;SDS011;10757;51.038;3.712;2023-02-11T01:27:38;24.95;;;7.65;;
21198;SDS011;10757;51.038;3.712;2023-02-11T01:30:05;16.33;;;7.45;;
21198;SDS011;10757;51.038;3.712;2023-02-11T01:32:32;22.15;;;6.90;;
21198;SDS011;10757;51.038;3.712;2023-02-11T01:34:58;24.85;;;7.32;;
21198;SDS011;10757;51.038;3.712;2023-02-11T01:37:24;21.30;;;7.03;;
21198;SDS011;10757;51.038;3.712;2023-02-11T01:39:50;13.70;;;6.53;;
21198;SDS011;10757;51.038;3.712;2023-02-11T01:42:20;21.00;;;7.28;;
21198;SDS011;10757;51.038;3.712;2023-02-11T01:44:50;23.27;;;7.65;;
21198;SDS011;10757;51.038;3.712;2023-02-11T01:47:18;23.33;;;7.30;;
21198;SDS011;10757;51.038;3.712;2023-02-11T01:49:46;18.98;;;6.88;;
21198;SDS011;10757;51.038;3.712;2023-02-11T01:52:18;17.95;;;7.60;;
21198;SDS011;10757;51.038;3.712;2023-02-11T01:54:58;23.80;;;7.63;;
21198;SDS011;10757;51.038;3.712;2023-02-11T01:57:50;17.95;;;7.05;;
21198;SDS011;10757;51.038;3.712;2023-02-11T02:00:21;21.13;;;7.05;;
21198;SDS011;10757;51.038;3.712;2023-02-11T02:02:51;21.13;;;7.80;;
21198;SDS011;10757;51.038;3.712;2023-02-11T02:05:34;15.90;;;7.03;;
21198;SDS011;10757;51.038;3.712;2023-02-11T02:08:17;24.20;;;6.95;;
21198;SDS011;10757;51.038;3.712;2023-02-11T02:10:55;17.58;;;7.45;;
21198;SDS011;10757;51.038;3.712;2023-02-11T02:13:24;22.20;;;7.65;;
21198;SDS011;10757;51.038;3.712;2023-02-11T02:15:58;21.17;;;8.00;;
21198;SDS011;10757;51.038;3.712;2023-02-11T02:33:00;20.02;;;8.30;;
21198;SDS011;10757;51.038;3.712;2023-02-11T02:41:16;18.33;;;7.75;;
21198;SDS011;10757;51.038;3.712;2023-02-11T02:43:47;23.13;;;9.55;;
21198;SDS011;10757;51.038;3.712;2023-02-11T02:48:43;17.50;;;8.25;;
21198;SDS011;10757;51.038;3.712;2023-02-11T02:51:25;24.70;;;8.95;;
21198;SDS011;10757;51.038;3.712;2023-02-11T02:54:20;22.02;;;9.13;;
21198;SDS011;10757;51.038;3.712;2023-02-11T02:57:11;23.05;;;8.90;;
21198;SDS011;10757;51.038;3.712;2023-02-11T03:05:11;24.70;;;9.25;;
21198;SDS011;10757;51.038;3.712;2023-02-11T03:12:45;19.90;;;7.80;;
21198;SDS011;10757;51.038;3.712;2023-02-11T03:15:14;21.52;;;8.32;;
21198;SDS011;10757;51.038;3.712;2023-02-11T03:17:43;21.48;;;9.27;;
21198;SDS011;10757;51.038;3.712;2023-02-11T03:20:14;22.13;;;10.10;;
21198;SDS011;10757;51.038;3.712;2023-02-11T03:22:44;22.77;;;9.32;;
21198;SDS011;10757;51.038;3.712;2023-02-11T03:25:19;23.63;;;8.93;;
21198;SDS011;10757;51.038;3.712;2023-02-11T03:27:58;24.40;;;9.65;;
21198;SDS011;10757;51.038;3.712;2023-02-11T03:31:32;17.67;;;8.63;;
21198;SDS011;10757;51.038;3.712;2023-02-11T03:33:34;17.52;;;9.10;;
21198;SDS011;10757;51.038;3.712;2023-02-11T03:36:26;18.15;;;8.55;;
21198;SDS011;10757;51.038;3.712;2023-02-11T03:39:13;16.83;;;8.57;;
21198;SDS011;10757;51.038;3.712;2023-02-11T03:41:44;17.58;;;9.07;;
21198;SDS011;10757;51.038;3.712;2023-02-11T03:44:13;19.73;;;9.10;;
21198;SDS011;10757;51.038;3.712;2023-02-11T03:46:41;19.85;;;9.45;;
21198;SDS011;10757;51.038;3.712;2023-02-11T03:49:12;20.80;;;9.45;;
21198;SDS011;10757;51.038;3.712;2023-02-11T03:51:41;21.08;;;10.38;;
21198;SDS011;10757;51.038;3.712;2023-02-11T03:54:09;17.38;;;9.30;;
21198;SDS011;10757;51.038;3.712;2023-02-11T03:56:42;24.23;;;10.07;;
21198;SDS011;10757;51.038;3.712;2023-02-11T03:59:20;25.08;;;10.27;;
21198;SDS011;10757;51.038;3.712;2023-02-11T04:01:45;22.25;;;10.27;;
21198;SDS011;10757;51.038;3.712;2023-02-11T04:04:12;25.98;;;10.63;;
21198;SDS011;10757;51.038;3.712;2023-02-11T04:06:37;15.18;;;9.88;;
21198;SDS011;10757;51.038;3.712;2023-02-11T04:09:03;22.92;;;9.82;;
21198;SDS011;10757;51.038;3.712;2023-02-11T04:11:29;26.08;;;11.75;;
21198;SDS011;10757;51.038;3.712;2023-02-11T04:13:55;25.95;;;10.10;;
21198;SDS011;10757;51.038;3.712;2023-02-11T04:16:20;23.35;;;10.70;;
21198;SDS011;10757;51.038;3.712;2023-02-11T04:18:46;20.65;;;10.45;;
21198;SDS011;10757;51.038;3.712;2023-02-11T04:21:12;21.08;;;10.02;;
21198;SDS011;10757;51.038;3.712;2023-02-11T04:23:38;27.35;;;11.00;;
21198;SDS011;10757;51.038;3.712;2023-02-11T04:26:03;25.88;;;11.77;;
21198;SDS011;10757;51.038;3.712;2023-02-11T04:28:29;24.00;;;11.30;;
21198;SDS011;10757;51.038;3.712;2023-02-11T04:30:55;28.70;;;10.13;;
21198;SDS011;10757;51.038;3.712;2023-02-11T04:33:21;24.40;;;10.80;;
21198;SDS011;10757;51.038;3.712;2023-02-11T04:35:47;26.92;;;10.80;;
21198;SDS011;10757;51.038;3.712;2023-02-11T04:38:13;24.75;;;9.93;;
21198;SDS011;10757;51.038;3.712;2023-02-11T04:40:39;26.42;;;10.57;;
21198;SDS011;10757;51.038;3.712;2023-02-11T04:43:05;21.70;;;10.20;;
21198;SDS011;10757;51.038;3.712;2023-02-11T04:45:31;26.85;;;10.32;;
21198;SDS011;10757;51.038;3.712;2023-02-11T04:47:57;28.25;;;11.05;;
21198;SDS011;10757;51.038;3.712;2023-02-11T04:50:23;23.48;;;11.05;;
21198;SDS011;10757;51.038;3.712;2023-02-11T04:52:49;28.70;;;10.95;;
21198;SDS011;10757;51.038;3.712;2023-02-11T04:55:15;17.83;;;9.90;;
21198;SDS011;10757;51.038;3.712;2023-02-11T04:57:41;20.80;;;11.05;;
21198;SDS011;10757;51.038;3.712;2023-02-11T05:00:07;22.00;;;10.48;;
21198;SDS011;10757;51.038;3.712;2023-02-11T05:02:34;21.25;;;11.10;;
21198;SDS011;10757;51.038;3.712;2023-02-11T05:05:05;21.48;;;11.25;;
21198;SDS011;10757;51.038;3.712;2023-02-11T05:07:34;22.25;;;10.98;;
21198;SDS011;10757;51.038;3.712;2023-02-11T05:10:00;26.45;;;11.50;;
21198;SDS011;10757;51.038;3.712;2023-02-11T05:12:26;25.52;;;11.93;;
21198;SDS011;10757;51.038;3.712;2023-02-11T05:14:51;27.20;;;11.95;;
21198;SDS011;10757;51.038;3.712;2023-02-11T05:17:17;27.55;;;12.20;;
21198;SDS011;10757;51.038;3.712;2023-02-11T05:19:43;23.35;;;11.45;;
21198;SDS011;10757;51.038;3.712;2023-02-11T05:22:08;23.67;;;11.70;;
21198;SDS011;10757;51.038;3.712;2023-02-11T05:24:34;22.70;;;10.50;;
21198;SDS011;10757;51.038;3.712;2023-02-11T05:27:00;25.95;;;11.90;;
21198;SDS011;10757;51.038;3.712;2023-02-11T05:29:26;21.25;;;11.50;;
21198;SDS011;10757;51.038;3.712;2023-02-11T05:31:52;22.58;;;11.43;;
21198;SDS011;10757;51.038;3.712;2023-02-11T05:34:17;24.58;;;11.95;;
21198;SDS011;10757;51.038;3.712;2023-02-11T05:36:43;32.03;;;13.10;;
21198;SDS011;10757;51.038;3.712;2023-02-11T05:39:09;27.88;;;12.82;;
21198;SDS011;10757;51.038;3.712;2023-02-11T05:41:35;24.27;;;11.80;;
21198;SDS011;10757;51.038;3.712;2023-02-11T05:44:02;26.83;;;12.52;;
21198;SDS011;10757;51.038;3.712;2023-02-11T05:46:28;22.77;;;13.27;;
21198;SDS011;10757;51.038;3.712;2023-02-11T05:48:53;20.70;;;12.25;;
21198;SDS011;10757;51.038;3.712;2023-02-11T05:51:20;29.90;;;14.30;;
21198;SDS011;10757;51.038;3.712;2023-02-11T05:53:46;20.88;;;13.15;;
21198;SDS011;10757;51.038;3.712;2023-02-11T05:56:12;23.90;;;11.65;;
21198;SDS011;10757;51.038;3.712;2023-02-11T05:58:38;27.90;;;12.88;;
21198;SDS011;10757;51.038;3.712;2023-02-11T06:01:04;31.20;;;14.02;;
21198;SDS011;10757;51.038;3.712;2023-02-11T06:03:30;26.52;;;13.95;;
21198;SDS011;10757;51.038;3.712;2023-02-11T06:05:55;27.40;;;13.13;;
21198;SDS011;10757;51.038;3.712;2023-02-11T06:08:21;21.52;;;13.55;;
21198;SDS011;10757;51.038;3.712;2023-02-11T06:10:47;27.48;;;13.55;;
21198;SDS011;10757;51.038;3.712;2023-02-11T06:13:12;27.63;;;15.43;;
21198;SDS011;10757;51.038;3.712;2023-02-11T06:15:38;23.85;;;14.00;;
21198;SDS011;10757;51.038;3.712;2023-02-11T06:18:04;27.08;;;14.50;;
21198;SDS011;10757;51.038;3.712;2023-02-11T06:20:30;34.78;;;15.13;;
21198;SDS011;10757;51.038;3.712;2023-02-11T06:22:55;30.90;;;15.27;;
21198;SDS011;10757;51.038;3.712;2023-02-11T06:25:21;29.27;;;15.43;;
21198;SDS011;10757;51.038;3.712;2023-02-11T06:27:47;28.17;;;14.57;;
21198;SDS011;10757;51.038;3.712;2023-02-11T06:30:13;24.95;;;14.95;;
21198;SDS011;10757;51.038;3.712;2023-02-11T06:32:39;35.25;;;15.63;;
21198;SDS011;10757;51.038;3.712;2023-02-11T06:35:04;29.63;;;16.17;;
21198;SDS011;10757;51.038;3.712;2023-02-11T06:37:30;27.40;;;14.95;;
21198;SDS011;10757;51.038;3.712;2023-02-11T06:39:58;33.42;;;16.75;;
21198;SDS011;10757;51.038;3.712;2023-02-11T06:42:23;30.38;;;16.58;;
21198;SDS011;10757;51.038;3.712;2023-02-11T06:44:49;35.85;;;17.25;;
21198;SDS011;10757;51.038;3.712;2023-02-11T06:47:15;30.80;;;15.13;;
21198;SDS011;10757;51.038;3.712;2023-02-11T06:49:40;32.75;;;17.75;;
21198;SDS011;10757;51.038;3.712;2023-02-11T06:52:06;32.70;;;16.63;;
21198;SDS011;10757;51.038;3.712;2023-02-11T06:54:32;32.80;;;18.00;;
21198;SDS011;10757;51.038;3.712;2023-02-11T06:56:57;32.80;;;17.35;;
21198;SDS011;10757;51.038;3.712;2023-02-11T06:59:23;30.63;;;16.75;;
21198;SDS011;10757;51.038;3.712;2023-02-11T07:01:48;28.48;;;16.60;;
21198;SDS011;10757;51.038;3.712;2023-02-11T07:04:14;35.65;;;16.30;;
21198;SDS011;10757;51.038;3.712;2023-02-11T07:06:40;30.73;;;15.82;;
21198;SDS011;10757;51.038;3.712;2023-02-11T07:09:06;32.83;;;17.48;;
21198;SDS011;10757;51.038;3.712;2023-02-11T07:11:32;32.80;;;17.60;;
21198;SDS011;10757;51.038;3.712;2023-02-11T07:14:02;34.08;;;17.30;;
21198;SDS011;10757;51.038;3.712;2023-02-11T07:16:29;32.35;;;18.00;;
21198;SDS011;10757;51.038;3.712;2023-02-11T07:18:56;38.58;;;18.90;;
21198;SDS011;10757;51.038;3.712;2023-02-11T07:21:22;37.00;;;18.98;;
21198;SDS011;10757;51.038;3.712;2023-02-11T07:23:48;36.35;;;17.42;;
21198;SDS011;10757;51.038;3.712;2023-02-11T07:26:18;29.23;;;17.52;;
21198;SDS011;10757;51.038;3.712;2023-02-11T07:28:50;32.00;;;18.48;;
21198;SDS011;10757;51.038;3.712;2023-02-11T07:31:18;32.35;;;18.15;;
21198;SDS011;10757;51.038;3.712;2023-02-11T07:33:46;36.88;;;18.60;;
21198;SDS011;10757;51.038;3.712;2023-02-11T07:36:13;37.72;;;18.75;;
21198;SDS011;10757;51.038;3.712;2023-02-11T07:38:41;32.80;;;18.00;;
21198;SDS011;10757;51.038;3.712;2023-02-11T07:41:08;34.05;;;18.27;;
21198;SDS011;10757;51.038;3.712;2023-02-11T07:43:35;36.10;;;19.05;;
21198;SDS011;10757;51.038;3.712;2023-02-11T07:46:05;31.23;;;17.77;;
21198;SDS011;10757;51.038;3.712;2023-02-11T07:48:34;37.70;;;19.65;;
21198;SDS011;10757;51.038;3.712;2023-02-11T07:53:31;33.78;;;18.80;;
21198;SDS011;10757;51.038;3.712;2023-02-11T07:55:57;46.17;;;19.48;;
21198;SDS011;10757;51.038;3.712;2023-02-11T07:58:23;34.53;;;19.75;;
21198;SDS011;10757;51.038;3.712;2023-02-11T08:00:48;36.75;;;18.90;;
21198;SDS011;10757;51.038;3.712;2023-02-11T08:03:14;32.83;;;19.02;;
21198;SDS011;10757;51.038;3.712;2023-02-11T08:05:39;37.08;;;20.25;;
21198;SDS011;10757;51.038;3.712;2023-02-11T08:08:06;33.15;;;19.73;;
21198;SDS011;10757;51.038;3.712;2023-02-11T08:10:31;41.65;;;22.50;;
21198;SDS011;10757;51.038;3.712;2023-02-11T08:12:57;39.05;;;20.10;;
21198;SDS011;10757;51.038;3.712;2023-02-11T08:15:23;34.53;;;20.80;;
21198;SDS011;10757;51.038;3.712;2023-02-11T08:17:49;34.78;;;20.40;;
21198;SDS011;10757;51.038;3.712;2023-02-11T08:20:14;39.20;;;21.55;;
21198;SDS011;10757;51.038;3.712;2023-02-11T08:22:40;35.22;;;21.83;;
21198;SDS011;10757;51.038;3.712;2023-02-11T08:25:06;35.42;;;21.63;;
21198;SDS011;10757;51.038;3.712;2023-02-11T08:27:32;38.72;;;21.05;;
21198;SDS011;10757;51.038;3.712;2023-02-11T08:29:58;38.65;;;21.50;;
21198;SDS011;10757;51.038;3.712;2023-02-11T08:32:24;39.15;;;22.58;;
21198;SDS011;10757;51.038;3.712;2023-02-11T08:34:51;43.65;;;24.00;;
21198;SDS011;10757;51.038;3.712;2023-02-11T08:37:17;38.47;;;22.33;;
21198;SDS011;10757;51.038;3.712;2023-02-11T08:39:43;41.58;;;23.85;;
21198;SDS011;10757;51.038;3.712;2023-02-11T08:42:11;37.38;;;22.40;;
21198;SDS011;10757;51.038;3.712;2023-02-11T08:44:37;39.92;;;24.50;;
21198;SDS011;10757;51.038;3.712;2023-02-11T08:47:03;37.85;;;24.38;;
21198;SDS011;10757;51.038;3.712;2023-02-11T08:49:29;38.22;;;24.15;;
21198;SDS011;10757;51.038;3.712;2023-02-11T08:51:56;45.70;;;25.90;;
21198;SDS011;10757;51.038;3.712;2023-02-11T08:54:26;49.38;;;26.10;;
21198;SDS011;10757;51.038;3.712;2023-02-11T08:56:52;43.42;;;24.88;;
21198;SDS011;10757;51.038;3.712;2023-02-11T08:59:18;41.92;;;26.38;;
21198;SDS011;10757;51.038;3.712;2023-02-11T09:01:43;47.72;;;25.75;;
21198;SDS011;10757;51.038;3.712;2023-02-11T09:04:11;45.38;;;25.85;;
21198;SDS011;10757;51.038;3.712;2023-02-11T09:06:37;42.97;;;25.80;;
21198;SDS011;10757;51.038;3.712;2023-02-11T09:09:03;45.05;;;26.60;;
21198;SDS011;10757;51.038;3.712;2023-02-11T09:11:30;40.47;;;24.90;;
21198;SDS011;10757;51.038;3.712;2023-02-11T09:13:58;45.17;;;28.35;;
21198;SDS011;10757;51.038;3.712;2023-02-11T09:16:26;44.95;;;26.83;;
21198;SDS011;10757;51.038;3.712;2023-02-11T09:18:57;46.25;;;27.83;;
21198;SDS011;10757;51.038;3.712;2023-02-11T09:21:24;48.70;;;28.27;;
21198;SDS011;10757;51.038;3.712;2023-02-11T09:23:50;45.30;;;28.98;;
21198;SDS011;10757;51.038;3.712;2023-02-11T09:26:20;45.20;;;28.85;;
21198;SDS011;10757;51.038;3.712;2023-02-11T09:28:49;47.53;;;28.83;;
21198;SDS011;10757;51.038;3.712;2023-02-11T09:31:16;49.88;;;29.00;;
21198;SDS011;10757;51.038;3.712;2023-02-11T09:33:44;47.88;;;30.02;;
21198;SDS011;10757;51.038;3.712;2023-02-11T09:36:15;48.50;;;30.67;;
21198;SDS011;10757;51.038;3.712;2023-02-11T09:38:43;41.92;;;26.60;;
21198;SDS011;10757;51.038;3.712;2023-02-11T09:43:48;42.80;;;27.95;;
21198;SDS011;10757;51.038;3.712;2023-02-11T09:46:28;46.08;;;27.98;;
21198;SDS011;10757;51.038;3.712;2023-02-11T09:48:59;45.13;;;28.13;;
21198;SDS011;10757;51.038;3.712;2023-02-11T09:54:12;44.17;;;26.88;;
21198;SDS011;10757;51.038;3.712;2023-02-11T09:57:00;44.38;;;26.70;;
21198;SDS011;10757;51.038;3.712;2023-02-11T09:59:25;37.83;;;24.58;;
21198;SDS011;10757;51.038;3.712;2023-02-11T10:10:40;38.80;;;25.25;;
21198;SDS011;10757;51.038;3.712;2023-02-11T10:15:48;32.45;;;23.15;;
21198;SDS011;10757;51.038;3.712;2023-02-11T10:23:55;38.85;;;24.77;;
21198;SDS011;10757;51.038;3.712;2023-02-11T10:26:25;36.40;;;23.20;;
21198;SDS011;10757;51.038;3.712;2023-02-11T10:28:53;38.95;;;23.38;;
21198;SDS011;10757;51.038;3.712;2023-02-11T10:31:25;40.30;;;24.58;;
21198;SDS011;10757;51.038;3.712;2023-02-11T10:36:35;39.80;;;23.98;;
21198;SDS011;10757;51.038;3.712;2023-02-11T10:39:11;36.78;;;22.75;;
21198;SDS011;10757;51.038;3.712;2023-02-11T10:41:43;37.10;;;24.02;;
21198;SDS011;10757;51.038;3.712;2023-02-11T10:44:29;36.00;;;23.02;;
21198;SDS011;10757;51.038;3.712;2023-02-11T10:47:19;40.67;;;25.10;;
21198;SDS011;10757;51.038;3.712;2023-02-11T10:49:48;36.20;;;22.42;;
21198;SDS011;10757;51.038;3.712;2023-02-11T10:54:56;35.92;;;23.98;;
21198;SDS011;10757;51.038;3.712;2023-02-11T10:57:30;34.13;;;23.17;;
21198;SDS011;10757;51.038;3.712;2023-02-11T11:00:04;37.25;;;23.42;;
21198;SDS011;10757;51.038;3.712;2023-02-11T11:02:34;36.83;;;24.73;;
21198;SDS011;10757;51.038;3.712;2023-02-11T11:05:06;37.95;;;25.48;;
21198;SDS011;10757;51.038;3.712;2023-02-11T11:07:42;36.15;;;24.27;;
21198;SDS011;10757;51.038;3.712;2023-02-11T11:10:34;34.17;;;23.15;;
21198;SDS011;10757;51.038;3.712;2023-02-11T11:13:24;35.05;;;24.60;;
21198;SDS011;10757;51.038;3.712;2023-02-11T11:16:14;37.08;;;23.77;;
21198;SDS011;10757;51.038;3.712;2023-02-11T11:18:45;40.13;;;23.83;;
21198;SDS011;10757;51.038;3.712;2023-02-11T11:21:42;34.45;;;22.67;;
21198;SDS011;10757;51.038;3.712;2023-02-11T11:26:44;35.22;;;22.17;;
21198;SDS011;10757;51.038;3.712;2023-02-11T11:29:18;37.05;;;23.48;;
21198;SDS011;10757;51.038;3.712;2023-02-11T11:31:52;36.35;;;23.65;;
21198;SDS011;10757;51.038;3.712;2023-02-11T11:37:39;36.58;;;22.83;;
21198;SDS011;10757;51.038;3.712;2023-02-11T11:40:01;34.65;;;22.83;;
21198;SDS011;10757;51.038;3.712;2023-02-11T11:42:28;33.28;;;22.40;;
21198;SDS011;10757;51.038;3.712;2023-02-11T11:44:56;38.15;;;24.13;;
21198;SDS011;10757;51.038;3.712;2023-02-11T11:47:26;39.83;;;23.30;;
21198;SDS011;10757;51.038;3.712;2023-02-11T11:55:43;37.50;;;24.67;;
21198;SDS011;10757;51.038;3.712;2023-02-11T11:58:15;35.55;;;23.08;;
21198;SDS011;10757;51.038;3.712;2023-02-11T12:23:35;39.85;;;24.17;;
21198;SDS011;10757;51.038;3.712;2023-02-11T12:26:13;31.77;;;21.63;;
21198;SDS011;10757;51.038;3.712;2023-02-11T12:28:52;36.38;;;22.85;;
21198;SDS011;10757;51.038;3.712;2023-02-11T12:31:38;33.90;;;23.92;;
21198;SDS011;10757;51.038;3.712;2023-02-11T12:36:51;36.63;;;24.67;;
21198;SDS011;10757;51.038;3.712;2023-02-11T12:50:56;34.28;;;22.67;;
21198;SDS011;10757;51.038;3.712;2023-02-11T12:59:09;31.55;;;22.77;;
21198;SDS011;10757;51.038;3.712;2023-02-11T13:01:41;30.10;;;21.95;;
21198;SDS011;10757;51.038;3.712;2023-02-11T13:07:18;35.97;;;22.55;;
21198;SDS011;10757;51.038;3.712;2023-02-11T13:09:53;33.25;;;22.77;;
21198;SDS011;10757;51.038;3.712;2023-02-11T13:12:26;36.95;;;22.85;;
21198;SDS011;10757;51.038;3.712;2023-02-11T13:15:13;35.17;;;23.17;;
21198;SDS011;10757;51.038;3.712;2023-02-11T13:17:42;38.58;;;23.25;;
21198;SDS011;10757;51.038;3.712;2023-02-11T13:25:56;32.45;;;23.17;;
21198;SDS011;10757;51.038;3.712;2023-02-11T13:28:56;35.60;;;24.08;;
21198;SDS011;10757;51.038;3.712;2023-02-11T13:31:35;32.75;;;20.70;;
21198;SDS011;10757;51.038;3.712;2023-02-11T13:36:43;28.52;;;20.55;;
21198;SDS011;10757;51.038;3.712;2023-02-11T13:39:19;34.85;;;22.10;;
21198;SDS011;10757;51.038;3.712;2023-02-11T13:41:46;35.83;;;22.50;;
21198;SDS011;10757;51.038;3.712;2023-02-11T13:46:59;30.00;;;20.98;;
21198;SDS011;10757;51.038;3.712;2023-02-11T13:52:05;29.52;;;20.60;;
21198;SDS011;10757;51.038;3.712;2023-02-11T13:54:55;29.27;;;20.98;;
21198;SDS011;10757;51.038;3.712;2023-02-11T13:57:29;30.77;;;21.67;;
21198;SDS011;10757;51.038;3.712;2023-02-11T14:00:00;33.72;;;21.05;;
21198;SDS011;10757;51.038;3.712;2023-02-11T14:02:44;31.95;;;21.40;;
21198;SDS011;10757;51.038;3.712;2023-02-11T14:06:16;35.50;;;20.75;;
21198;SDS011;10757;51.038;3.712;2023-02-11T14:16:32;63.30;;;42.15;;
21198;SDS011;10757;51.038;3.712;2023-02-11T14:18:59;30.25;;;20.15;;
21198;SDS011;10757;51.038;3.712;2023-02-11T14:24:38;36.25;;;22.58;;
21198;SDS011;10757;51.038;3.712;2023-02-11T14:32:33;42.05;;;25.73;;
21198;SDS011;10757;51.038;3.712;2023-02-11T14:37:52;36.35;;;22.90;;
21198;SDS011;10757;51.038;3.712;2023-02-11T14:43:09;32.17;;;19.83;;
21198;SDS011;10757;51.038;3.712;2023-02-11T14:45:47;31.38;;;20.38;;
21198;SDS011;10757;51.038;3.712;2023-02-11T14:48:16;32.58;;;21.58;;
21198;SDS011;10757;51.038;3.712;2023-02-11T14:50:45;30.38;;;20.35;;
21198;SDS011;10757;51.038;3.712;2023-02-11T14:53:14;30.58;;;17.98;;
21198;SDS011;10757;51.038;3.712;2023-02-11T14:55:52;28.58;;;19.27;;
21198;SDS011;10757;51.038;3.712;2023-02-11T14:58:22;37.83;;;21.95;;
21198;SDS011;10757;51.038;3.712;2023-02-11T15:00:52;26.73;;;18.77;;
21198;SDS011;10757;51.038;3.712;2023-02-11T15:03:34;29.08;;;18.65;;
21198;SDS011;10757;51.038;3.712;2023-02-11T15:06:15;28.58;;;18.70;;
21198;SDS011;10757;51.038;3.712;2023-02-11T15:09:02;34.00;;;18.70;;
21198;SDS011;10757;51.038;3.712;2023-02-11T15:11:37;29.85;;;19.25;;
21198;SDS011;10757;51.038;3.712;2023-02-11T15:14:27;29.23;;;18.77;;
21198;SDS011;10757;51.038;3.712;2023-02-11T15:16:54;29.38;;;19.58;;
21198;SDS011;10757;51.038;3.712;2023-02-11T15:21:51;31.17;;;18.70;;
21198;SDS011;10757;51.038;3.712;2023-02-11T15:24:39;30.08;;;18.55;;
21198;SDS011;10757;51.038;3.712;2023-02-11T15:29:44;26.15;;;17.75;;
21198;SDS011;10757;51.038;3.712;2023-02-11T15:32:14;29.15;;;18.50;;
21198;SDS011;10757;51.038;3.712;2023-02-11T15:34:43;32.08;;;19.90;;
21198;SDS011;10757;51.038;3.712;2023-02-11T15:37:12;32.63;;;18.33;;
21198;SDS011;10757;51.038;3.712;2023-02-11T15:39:41;27.05;;;17.70;;
21198;SDS011;10757;51.038;3.712;2023-02-11T15:42:21;30.08;;;19.33;;
21198;SDS011;10757;51.038;3.712;2023-02-11T15:50:32;27.00;;;18.25;;
21198;SDS011;10757;51.038;3.712;2023-02-11T15:59:24;29.65;;;18.25;;
21198;SDS011;10757;51.038;3.712;2023-02-11T16:01:53;24.75;;;17.17;;
21198;SDS011;10757;51.038;3.712;2023-02-11T16:04:21;29.23;;;17.10;;
21198;SDS011;10757;51.038;3.712;2023-02-11T16:06:49;32.40;;;18.70;;
21198;SDS011;10757;51.038;3.712;2023-02-11T16:09:33;29.13;;;18.13;;
21198;SDS011;10757;51.038;3.712;2023-02-11T16:12:01;28.63;;;18.80;;
21198;SDS011;10757;51.038;3.712;2023-02-11T16:14:33;29.98;;;19.30;;
21198;SDS011;10757;51.038;3.712;2023-02-11T16:19:56;29.65;;;18.58;;
21198;SDS011;10757;51.038;3.712;2023-02-11T16:22:23;29.25;;;19.05;;
21198;SDS011;10757;51.038;3.712;2023-02-11T16:24:53;31.00;;;18.27;;
21198;SDS011;10757;51.038;3.712;2023-02-11T16:27:25;31.17;;;19.13;;
21198;SDS011;10757;51.038;3.712;2023-02-11T16:29:54;28.33;;;18.27;;
21198;SDS011;10757;51.038;3.712;2023-02-11T16:32:28;30.27;;;19.30;;
21198;SDS011;10757;51.038;3.712;2023-02-11T16:34:56;32.25;;;18.95;;
21198;SDS011;10757;51.038;3.712;2023-02-11T16:37:23;30.27;;;19.20;;
21198;SDS011;10757;51.038;3.712;2023-02-11T16:39:53;29.80;;;19.00;;
21198;SDS011;10757;51.038;3.712;2023-02-11T16:42:20;28.98;;;18.17;;
21198;SDS011;10757;51.038;3.712;2023-02-11T16:44:46;31.33;;;18.88;;
21198;SDS011;10757;51.038;3.712;2023-02-11T16:47:21;28.42;;;19.67;;
21198;SDS011;10757;51.038;3.712;2023-02-11T16:49:50;33.10;;;19.65;;
21198;SDS011;10757;51.038;3.712;2023-02-11T16:52:17;31.50;;;20.85;;
21198;SDS011;10757;51.038;3.712;2023-02-11T16:54:45;31.52;;;20.90;;
21198;SDS011;10757;51.038;3.712;2023-02-11T16:57:15;28.70;;;20.60;;
21198;SDS011;10757;51.038;3.712;2023-02-11T16:59:43;31.38;;;20.33;;
21198;SDS011;10757;51.038;3.712;2023-02-11T17:02:21;34.35;;;21.00;;
21198;SDS011;10757;51.038;3.712;2023-02-11T17:04:53;33.03;;;20.80;;
21198;SDS011;10757;51.038;3.712;2023-02-11T17:07:22;30.92;;;21.15;;
21198;SDS011;10757;51.038;3.712;2023-02-11T17:09:48;29.58;;;18.95;;
21198;SDS011;10757;51.038;3.712;2023-02-11T17:12:13;33.63;;;21.90;;
21198;SDS011;10757;51.038;3.712;2023-02-11T17:14:39;31.15;;;20.38;;
21198;SDS011;10757;51.038;3.712;2023-02-11T17:17:05;29.83;;;20.38;;
21198;SDS011;10757;51.038;3.712;2023-02-11T17:19:31;27.85;;;19.48;;
21198;SDS011;10757;51.038;3.712;2023-02-11T17:21:56;28.40;;;18.50;;
21198;SDS011;10757;51.038;3.712;2023-02-11T17:24:22;32.08;;;20.13;;
21198;SDS011;10757;51.038;3.712;2023-02-11T17:26:48;33.35;;;21.58;;
21198;SDS011;10757;51.038;3.712;2023-02-11T17:29:15;37.92;;;21.42;;
21198;SDS011;10757;51.038;3.712;2023-02-11T17:31:46;33.65;;;22.15;;
21198;SDS011;10757;51.038;3.712;2023-02-11T17:34:12;34.92;;;20.98;;
21198;SDS011;10757;51.038;3.712;2023-02-11T17:36:37;39.75;;;22.25;;